Time;durP1;ratioP1;P1;durP2;ratioP2;P2;SDS_P1;SDS_P2;PMS_P1;PMS_P2;Temp;Humidity;BMP_temperature;BMP_pressure;BME280_temperature;BME280_humidity;BME280_pressure;Samples;Min_cycle;Max_cycle;Signal;HPM_P1;HPM_P2
2021/08/18 00:01:25;;;;;;;10.07;5.45;;;;;;;;;;5094730;28;20146;-59
2021/08/18 00:03:50;;;;;;;7.90;4.97;;;;;;;;;;5094954;28;20470;-58
2021/08/18 00:06:16;;;;;;;9.60;5.72;;;;;;;;;;5101328;28;20078;-58
2021/08/18 00:08:42;;;;;;;7.57;4.53;;;;;;;;;;5074329;28;20382;-58
2021/08/18 00:11:08;;;;;;;8.27;5.40;;;;;;;;;;5086573;28;20024;-59
2021/08/18 00:13:34;;;;;;;8.20;5.90;;;;;;;;;;5094292;28;20427;-59
2021/08/18 00:15:59;;;;;;;10.10;5.70;;;;;;;;;;5094401;28;20066;-59
2021/08/18 00:18:24;;;;;;;8.48;5.30;;;;;;;;;;5094250;28;20127;-59
2021/08/18 00:20:50;;;;;;;8.63;5.32;;;;;;;;;;5094510;28;20024;-59
2021/08/18 00:23:15;;;;;;;8.65;5.43;;;;;;;;;;5093674;28;20020;-59
2021/08/18 00:25:40;;;;;;;7.47;5.30;;;;;;;;;;5103028;28;20457;-59
2021/08/18 00:28:06;;;;;;;8.57;5.68;;;;;;;;;;5102545;28;20498;-60
2021/08/18 00:30:31;;;;;;;10.02;6.05;;;;;;;;;;5097079;28;20470;-59
2021/08/18 00:32:56;;;;;;;10.10;6.28;;;;;;;;;;5109834;28;20087;-60
2021/08/18 00:35:21;;;;;;;8.18;5.53;;;;;;;;;;5093681;28;20016;-59
2021/08/18 00:37:47;;;;;;;9.80;6.00;;;;;;;;;;5060905;28;20020;-59
2021/08/18 00:40:13;;;;;;;10.00;6.50;;;;;;;;;;5073610;28;20043;-59
2021/08/18 00:42:38;;;;;;;8.63;5.60;;;;;;;;;;5078788;28;20031;-59
2021/08/18 00:45:04;;;;;;;10.10;6.40;;;;;;;;;;5096250;28;20027;-59
2021/08/18 00:47:29;;;;;;;11.38;6.32;;;;;;;;;;5097420;28;20048;-59
2021/08/18 00:49:55;;;;;;;8.15;6.32;;;;;;;;;;5086463;28;20020;-59
2021/08/18 00:52:20;;;;;;;9.32;6.03;;;;;;;;;;5093616;28;20066;-59
2021/08/18 00:54:46;;;;;;;9.32;6.25;;;;;;;;;;5093607;28;20162;-60
2021/08/18 00:57:11;;;;;;;8.98;6.05;;;;;;;;;;5093156;28;20050;-60
2021/08/18 00:59:36;;;;;;;11.93;6.43;;;;;;;;;;5075323;28;20266;-60
2021/08/18 01:02:02;;;;;;;10.40;6.07;;;;;;;;;;5086769;28;20437;-59
2021/08/18 01:04:27;;;;;;;11.38;6.78;;;;;;;;;;5083905;28;20066;-58
2021/08/18 01:06:53;;;;;;;9.45;6.18;;;;;;;;;;5093683;28;20518;-59
2021/08/18 01:09:20;;;;;;;10.60;6.60;;;;;;;;;;5093853;28;20490;-59
2021/08/18 01:11:47;;;;;;;11.95;7.32;;;;;;;;;;5093004;28;20110;-60
2021/08/18 01:14:13;;;;;;;10.75;6.25;;;;;;;;;;5093246;28;20458;-59
2021/08/18 01:16:39;;;;;;;10.23;6.25;;;;;;;;;;5095491;28;20027;-59
2021/08/18 01:19:05;;;;;;;10.95;6.63;;;;;;;;;;5093455;28;20035;-59
2021/08/18 01:21:34;;;;;;;9.40;6.35;;;;;;;;;;5092875;28;20016;-59
2021/08/18 01:24:00;;;;;;;11.73;7.22;;;;;;;;;;5090364;28;20024;-59
2021/08/18 01:26:25;;;;;;;10.85;6.65;;;;;;;;;;5102322;28;20370;-59
2021/08/18 01:28:51;;;;;;;9.48;6.82;;;;;;;;;;5093049;28;20398;-59
2021/08/18 01:31:17;;;;;;;11.95;7.10;;;;;;;;;;5092561;28;20050;-59
2021/08/18 01:33:42;;;;;;;9.93;6.50;;;;;;;;;;5092566;28;20079;-59
2021/08/18 01:36:07;;;;;;;12.30;7.28;;;;;;;;;;5097108;28;20116;-59
2021/08/18 01:38:33;;;;;;;10.38;6.88;;;;;;;;;;5092986;28;20506;-59
2021/08/18 01:40:58;;;;;;;12.10;6.82;;;;;;;;;;5088569;28;20032;-59
2021/08/18 01:43:23;;;;;;;11.77;7.00;;;;;;;;;;5087787;28;20028;-60
2021/08/18 01:45:50;;;;;;;12.32;7.43;;;;;;;;;;5094443;28;20023;-59
2021/08/18 01:48:17;;;;;;;11.50;7.13;;;;;;;;;;5093036;28;20039;-59
2021/08/18 01:50:43;;;;;;;12.52;6.68;;;;;;;;;;5090801;28;20373;-60
2021/08/18 01:53:08;;;;;;;10.13;7.32;;;;;;;;;;5093646;28;20123;-59
2021/08/18 01:55:33;;;;;;;9.70;6.90;;;;;;;;;;5092766;28;20027;-60
2021/08/18 01:57:59;;;;;;;10.35;6.78;;;;;;;;;;5090684;28;20016;-59
2021/08/18 02:00:25;;;;;;;9.90;6.57;;;;;;;;;;5081065;28;20085;-60
2021/08/18 02:02:51;;;;;;;9.65;5.55;;;;;;;;;;5079814;28;20379;-59
2021/08/18 02:05:16;;;;;;;9.38;5.97;;;;;;;;;;5092270;28;20046;-59
2021/08/18 02:07:41;;;;;;;10.82;6.80;;;;;;;;;;5092641;28;20024;-59
2021/08/18 02:10:08;;;;;;;9.45;5.93;;;;;;;;;;5092570;28;20377;-60
2021/08/18 02:12:35;;;;;;;8.52;6.22;;;;;;;;;;5092609;28;20024;-59
2021/08/18 02:15:00;;;;;;;11.13;6.57;;;;;;;;;;5092392;28;20024;-60
2021/08/18 02:17:25;;;;;;;9.88;6.20;;;;;;;;;;5073186;28;20043;-60
2021/08/18 02:19:51;;;;;;;9.10;6.07;;;;;;;;;;5092278;28;20027;-59
2021/08/18 02:22:16;;;;;;;8.98;5.78;;;;;;;;;;5091852;28;20048;-60
2021/08/18 02:24:41;;;;;;;11.80;6.95;;;;;;;;;;5091621;28;20020;-59
2021/08/18 02:27:06;;;;;;;8.55;6.13;;;;;;;;;;5101730;28;20379;-60
2021/08/18 02:29:32;;;;;;;10.32;6.18;;;;;;;;;;5092187;28;20111;-59
2021/08/18 02:31:57;;;;;;;9.60;5.95;;;;;;;;;;5092116;28;20028;-59
2021/08/18 02:34:23;;;;;;;10.02;5.82;;;;;;;;;;5089651;28;20048;-59
2021/08/18 02:36:48;;;;;;;9.63;6.35;;;;;;;;;;5098377;28;20028;-59
2021/08/18 02:39:13;;;;;;;10.25;5.40;;;;;;;;;;5091249;28;20467;-59
2021/08/18 02:41:38;;;;;;;9.95;6.50;;;;;;;;;;5091886;28;20027;-59
2021/08/18 02:44:03;;;;;;;11.48;6.75;;;;;;;;;;5091914;28;20074;-59
2021/08/18 02:46:29;;;;;;;7.80;5.32;;;;;;;;;;5098618;28;20051;-57
2021/08/18 02:48:54;;;;;;;10.50;6.65;;;;;;;;;;5091877;28;20020;-59
2021/08/18 02:51:19;;;;;;;10.73;6.55;;;;;;;;;;5091129;28;20017;-59
2021/08/18 02:53:44;;;;;;;11.77;6.50;;;;;;;;;;5084375;28;20024;-59
2021/08/18 02:56:09;;;;;;;10.73;5.85;;;;;;;;;;5092098;28;20024;-58
2021/08/18 02:58:35;;;;;;;8.07;5.72;;;;;;;;;;5091401;28;20103;-59
2021/08/18 03:01:00;;;;;;;10.63;6.53;;;;;;;;;;5075278;28;20056;-59
2021/08/18 03:03:25;;;;;;;10.63;6.03;;;;;;;;;;5095475;28;20103;-58
2021/08/18 03:05:50;;;;;;;10.50;6.25;;;;;;;;;;5095828;28;20023;-59
2021/08/18 03:08:15;;;;;;;9.55;6.55;;;;;;;;;;5076867;28;20434;-59
2021/08/18 03:10:41;;;;;;;9.30;6.20;;;;;;;;;;5090301;28;20028;-59
2021/08/18 03:13:06;;;;;;;8.25;5.93;;;;;;;;;;5095377;28;20028;-59
2021/08/18 03:15:31;;;;;;;9.65;6.30;;;;;;;;;;5095761;28;20024;-59
2021/08/18 03:17:57;;;;;;;8.18;5.90;;;;;;;;;;5095248;28;20036;-59
2021/08/18 03:20:22;;;;;;;10.75;5.93;;;;;;;;;;5095512;28;20054;-59
2021/08/18 03:22:47;;;;;;;9.80;6.43;;;;;;;;;;5085806;28;20027;-59
2021/08/18 03:25:12;;;;;;;9.93;5.75;;;;;;;;;;5095158;28;20019;-59
2021/08/18 03:27:38;;;;;;;11.20;6.45;;;;;;;;;;5090332;28;20097;-59
2021/08/18 03:30:07;;;;;;;9.68;6.50;;;;;;;;;;5077336;28;20112;-59
2021/08/18 03:32:32;;;;;;;9.02;6.05;;;;;;;;;;5094832;28;20065;-59
2021/08/18 03:34:57;;;;;;;9.38;6.15;;;;;;;;;;5095779;28;20098;-59
2021/08/18 03:37:22;;;;;;;9.52;6.03;;;;;;;;;;5094562;28;20077;-58
2021/08/18 03:39:48;;;;;;;9.35;5.38;;;;;;;;;;5100565;28;20028;-59
2021/08/18 03:42:13;;;;;;;10.27;6.10;;;;;;;;;;5106330;28;20028;-58
2021/08/18 03:44:38;;;;;;;9.20;5.60;;;;;;;;;;5092765;28;20580;-59
2021/08/18 03:47:04;;;;;;;8.93;5.78;;;;;;;;;;5094739;28;20085;-60
2021/08/18 03:49:29;;;;;;;9.75;5.60;;;;;;;;;;5094999;28;20416;-59
2021/08/18 03:51:54;;;;;;;10.40;5.57;;;;;;;;;;5103676;28;20020;-60
2021/08/18 03:54:19;;;;;;;7.13;5.00;;;;;;;;;;5094944;28;20522;-59
2021/08/18 03:56:45;;;;;;;8.50;5.45;;;;;;;;;;5109545;28;20031;-59
2021/08/18 03:59:11;;;;;;;6.97;4.63;;;;;;;;;;5114422;28;20084;-59
2021/08/18 04:01:36;;;;;;;7.47;4.93;;;;;;;;;;5090606;28;20394;-59
2021/08/18 04:04:02;;;;;;;7.28;4.72;;;;;;;;;;5094543;28;20027;-58
2021/08/18 04:06:27;;;;;;;7.00;4.75;;;;;;;;;;5093711;28;20493;-60
2021/08/18 04:08:52;;;;;;;6.15;4.15;;;;;;;;;;5108768;28;20020;-59
2021/08/18 04:11:17;;;;;;;8.63;5.15;;;;;;;;;;5096682;28;20019;-59
2021/08/18 04:13:43;;;;;;;4.82;3.33;;;;;;;;;;5102515;28;20107;-59
2021/08/18 04:16:08;;;;;;;7.10;4.15;;;;;;;;;;5094504;28;20020;-59
2021/08/18 04:18:33;;;;;;;7.10;4.68;;;;;;;;;;5095623;28;20028;-59
2021/08/18 04:20:58;;;;;;;8.05;5.00;;;;;;;;;;5093859;28;20031;-59
2021/08/18 04:23:23;;;;;;;6.85;3.97;;;;;;;;;;5103860;28;20024;-59
2021/08/18 04:25:49;;;;;;;6.18;4.40;;;;;;;;;;5094529;28;20482;-59
2021/08/18 04:28:14;;;;;;;6.97;4.72;;;;;;;;;;5097593;28;20523;-59
2021/08/18 04:30:39;;;;;;;9.05;5.07;;;;;;;;;;5094337;28;20016;-58
2021/08/18 04:33:04;;;;;;;8.18;5.20;;;;;;;;;;5093847;28;20505;-59
2021/08/18 04:35:29;;;;;;;8.65;5.88;;;;;;;;;;5091423;28;20036;-59
2021/08/18 04:37:55;;;;;;;8.35;5.47;;;;;;;;;;5091219;28;20492;-59
2021/08/18 04:40:21;;;;;;;8.77;5.38;;;;;;;;;;5093794;28;20020;-59
2021/08/18 04:42:47;;;;;;;8.63;5.55;;;;;;;;;;5088709;28;20032;-59
2021/08/18 04:45:13;;;;;;;7.72;5.90;;;;;;;;;;5073521;28;20517;-59
2021/08/18 04:47:39;;;;;;;11.27;5.85;;;;;;;;;;5097886;28;20028;-59
2021/08/18 04:50:05;;;;;;;7.63;5.50;;;;;;;;;;5075187;28;20024;-59
2021/08/18 04:52:30;;;;;;;8.65;5.30;;;;;;;;;;5093306;28;20036;-58
2021/08/18 04:54:56;;;;;;;7.95;5.00;;;;;;;;;;5089027;28;20043;-59
2021/08/18 04:57:21;;;;;;;8.85;5.10;;;;;;;;;;5093535;28;20050;-58
2021/08/18 04:59:46;;;;;;;10.23;6.47;;;;;;;;;;5093155;28;20056;-58
2021/08/18 05:02:11;;;;;;;9.20;5.63;;;;;;;;;;5092818;28;20088;-59
2021/08/18 05:04:37;;;;;;;7.57;4.85;;;;;;;;;;5093430;28;20095;-59
2021/08/18 05:07:02;;;;;;;6.88;5.15;;;;;;;;;;5093309;28;20374;-59
2021/08/18 05:09:27;;;;;;;8.90;5.13;;;;;;;;;;5104364;28;20042;-59
2021/08/18 05:11:54;;;;;;;7.13;4.88;;;;;;;;;;5096232;28;20425;-58
2021/08/18 05:14:20;;;;;;;7.20;4.78;;;;;;;;;;5092845;28;20549;-59
2021/08/18 05:16:46;;;;;;;6.32;4.18;;;;;;;;;;5087329;28;20012;-59
2021/08/18 05:19:11;;;;;;;8.18;4.47;;;;;;;;;;5096561;28;20020;-59
2021/08/18 05:21:36;;;;;;;6.57;4.50;;;;;;;;;;5091198;28;20102;-59
2021/08/18 05:24:01;;;;;;;5.95;4.20;;;;;;;;;;5090900;28;20069;-59
2021/08/18 05:26:26;;;;;;;6.20;4.38;;;;;;;;;;5080922;28;20027;-59
2021/08/18 05:28:52;;;;;;;5.20;3.63;;;;;;;;;;5095019;28;20044;-59
2021/08/18 05:31:17;;;;;;;5.35;3.88;;;;;;;;;;5090021;28;20012;-59
2021/08/18 05:33:42;;;;;;;6.35;4.32;;;;;;;;;;5090019;28;20028;-59
2021/08/18 05:36:08;;;;;;;5.07;3.85;;;;;;;;;;5092657;28;20675;-59
2021/08/18 05:38:33;;;;;;;6.35;4.18;;;;;;;;;;5091592;28;20020;-59
2021/08/18 05:40:58;;;;;;;5.32;3.80;;;;;;;;;;5092345;28;20375;-59
2021/08/18 05:43:23;;;;;;;6.20;4.05;;;;;;;;;;5091520;28;20474;-59
2021/08/18 05:45:48;;;;;;;4.65;3.55;;;;;;;;;;5091930;28;20055;-58
2021/08/18 05:48:14;;;;;;;7.55;4.40;;;;;;;;;;5073382;28;20055;-59
2021/08/18 05:50:39;;;;;;;5.50;3.47;;;;;;;;;;5091945;28;20023;-58
2021/08/18 05:53:05;;;;;;;5.15;3.42;;;;;;;;;;5091774;28;20386;-59
2021/08/18 05:55:30;;;;;;;5.25;3.15;;;;;;;;;;5092244;28;20031;-59
2021/08/18 05:57:55;;;;;;;4.72;2.97;;;;;;;;;;5095176;28;20458;-59
2021/08/18 06:00:20;;;;;;;4.80;2.67;;;;;;;;;;5104427;28;20031;-58
2021/08/18 06:02:46;;;;;;;4.97;3.35;;;;;;;;;;5091639;28;20032;-59
2021/08/18 06:05:11;;;;;;;5.15;3.70;;;;;;;;;;5091083;28;20183;-60
2021/08/18 06:07:36;;;;;;;3.88;2.90;;;;;;;;;;5089775;28;20043;-59
2021/08/18 06:10:02;;;;;;;5.97;3.10;;;;;;;;;;5085562;28;20471;-59
2021/08/18 06:12:27;;;;;;;5.03;2.67;;;;;;;;;;5083038;28;20067;-59
2021/08/18 06:14:52;;;;;;;4.43;2.53;;;;;;;;;;5091177;28;20051;-59
2021/08/18 06:17:17;;;;;;;3.72;3.03;;;;;;;;;;5091876;28;20022;-60
2021/08/18 06:19:42;;;;;;;2.70;2.33;;;;;;;;;;5085438;28;20028;-60
2021/08/18 06:22:08;;;;;;;3.22;1.70;;;;;;;;;;5091523;28;20028;-60
2021/08/18 06:27:04;;;;;;;5.15;2.67;;;;;;;;;;5091911;28;20518;-59
2021/08/18 06:29:32;;;;;;;3.42;2.33;;;;;;;;;;5091674;28;20107;-59
2021/08/18 06:31:57;;;;;;;3.28;2.20;;;;;;;;;;5091637;28;20016;-59
2021/08/18 06:34:22;;;;;;;2.90;1.70;;;;;;;;;;5088273;28;20034;-60
2021/08/18 06:36:47;;;;;;;3.60;2.30;;;;;;;;;;5091363;28;20020;-59
2021/08/18 06:39:12;;;;;;;2.70;1.77;;;;;;;;;;5091423;28;20419;-60
2021/08/18 06:41:38;;;;;;;3.17;1.70;;;;;;;;;;5091214;28;20386;-60
2021/08/18 06:44:03;;;;;;;4.25;2.03;;;;;;;;;;5091109;28;20020;-60
2021/08/18 06:46:28;;;;;;;2.33;1.58;;;;;;;;;;5091213;28;20100;-60
2021/08/18 06:48:53;;;;;;;2.55;1.70;;;;;;;;;;5091409;28;20146;-60
2021/08/18 06:51:19;;;;;;;2.72;1.90;;;;;;;;;;5091399;28;20013;-60
2021/08/18 06:53:44;;;;;;;2.88;1.38;;;;;;;;;;5090842;28;20577;-59
2021/08/18 06:56:10;;;;;;;2.15;1.40;;;;;;;;;;5091765;28;20036;-59
2021/08/18 06:58:37;;;;;;;1.80;1.20;;;;;;;;;;5091512;28;20024;-59
2021/08/18 07:01:02;;;;;;;8.23;1.60;;;;;;;;;;5091557;28;20082;-58
2021/08/18 07:03:27;;;;;;;2.03;1.05;;;;;;;;;;5091041;28;20048;-58
2021/08/18 07:05:53;;;;;;;2.60;1.33;;;;;;;;;;5073511;28;20057;-59
2021/08/18 07:08:18;;;;;;;1.02;0.88;;;;;;;;;;5090387;28;20485;-59
2021/08/18 07:10:43;;;;;;;0.88;0.63;;;;;;;;;;5088632;28;20024;-59
2021/08/18 07:13:08;;;;;;;1.60;1.05;;;;;;;;;;5090152;28;20470;-59
2021/08/18 07:15:33;;;;;;;4.55;1.02;;;;;;;;;;5092040;28;20461;-59
2021/08/18 07:18:01;;;;;;;0.95;0.70;;;;;;;;;;5072691;28;20028;-59
2021/08/18 07:20:26;;;;;;;1.00;0.50;;;;;;;;;;5091112;28;20052;-60
2021/08/18 07:22:51;;;;;;;0.98;0.70;;;;;;;;;;5101471;28;20065;-58
2021/08/18 07:25:16;;;;;;;1.33;0.85;;;;;;;;;;5090452;28;20016;-59
2021/08/18 07:27:42;;;;;;;1.05;0.77;;;;;;;;;;5085263;28;20040;-59
2021/08/18 07:30:07;;;;;;;1.20;0.90;;;;;;;;;;5091149;28;20016;-59
2021/08/18 07:32:32;;;;;;;1.23;0.60;;;;;;;;;;5090624;28;20016;-59
2021/08/18 07:34:57;;;;;;;1.67;0.60;;;;;;;;;;5091505;28;20016;-58
2021/08/18 07:37:24;;;;;;;1.38;0.73;;;;;;;;;;5090414;28;20023;-59
2021/08/18 07:39:50;;;;;;;0.80;0.63;;;;;;;;;;5090983;28;20130;-58
2021/08/18 07:42:15;;;;;;;1.73;0.73;;;;;;;;;;5090746;28;20474;-58
2021/08/18 07:44:41;;;;;;;1.73;0.52;;;;;;;;;;5072795;28;20031;-58
2021/08/18 07:47:06;;;;;;;1.42;0.50;;;;;;;;;;5090912;28;20051;-59
2021/08/18 07:49:31;;;;;;;0.85;0.70;;;;;;;;;;5076730;28;20019;-59
2021/08/18 07:51:56;;;;;;;1.48;0.50;;;;;;;;;;5094283;28;20024;-58
2021/08/18 07:54:22;;;;;;;1.40;0.50;;;;;;;;;;5094735;28;20017;-59
2021/08/18 07:56:47;;;;;;;1.42;0.57;;;;;;;;;;5094598;28;20397;-59
2021/08/18 07:59:12;;;;;;;1.52;0.50;;;;;;;;;;5093958;28;20024;-59
2021/08/18 08:01:37;;;;;;;0.88;0.40;;;;;;;;;;5094301;28;20523;-59
2021/08/18 08:04:02;;;;;;;1.23;0.47;;;;;;;;;;5094363;28;20025;-59
2021/08/18 08:06:28;;;;;;;0.60;0.50;;;;;;;;;;5094191;28;20054;-59
2021/08/18 08:08:53;;;;;;;0.82;0.60;;;;;;;;;;5093969;28;20401;-59
2021/08/18 08:11:19;;;;;;;1.50;0.73;;;;;;;;;;5092186;28;20027;-60
2021/08/18 08:13:44;;;;;;;0.77;0.50;;;;;;;;;;5092890;28;20020;-60
2021/08/18 08:16:09;;;;;;;1.63;0.50;;;;;;;;;;5092266;28;20251;-59
2021/08/18 08:18:34;;;;;;;1.02;0.60;;;;;;;;;;5093862;28;20028;-59
2021/08/18 08:21:00;;;;;;;0.73;0.50;;;;;;;;;;5094396;28;20027;-59
2021/08/18 08:23:25;;;;;;;1.50;0.60;;;;;;;;;;5100701;28;20146;-59
2021/08/18 08:25:50;;;;;;;1.63;1.02;;;;;;;;;;5093900;28;20016;-59
2021/08/18 08:28:15;;;;;;;2.22;1.00;;;;;;;;;;5092103;28;20044;-59
2021/08/18 08:30:40;;;;;;;1.88;0.98;;;;;;;;;;5093493;28;20382;-59
2021/08/18 08:33:07;;;;;;;2.15;0.90;;;;;;;;;;5093245;28;20120;-59
2021/08/18 08:35:32;;;;;;;1.00;0.90;;;;;;;;;;5093215;28;20073;-59
2021/08/18 08:37:57;;;;;;;1.65;0.70;;;;;;;;;;5093613;28;20028;-58
2021/08/18 08:40:22;;;;;;;1.60;0.90;;;;;;;;;;5075527;28;20024;-60
2021/08/18 08:42:48;;;;;;;0.95;0.82;;;;;;;;;;5093401;28;20024;-59
2021/08/18 08:45:13;;;;;;;1.55;0.88;;;;;;;;;;5091325;28;20042;-59
2021/08/18 08:47:39;;;;;;;0.90;0.60;;;;;;;;;;5091378;28;20042;-59
2021/08/18 08:50:05;;;;;;;1.02;0.70;;;;;;;;;;5092162;28;20385;-59
2021/08/18 08:52:31;;;;;;;1.45;0.98;;;;;;;;;;5087461;28;20434;-59
2021/08/18 08:54:56;;;;;;;1.20;1.00;;;;;;;;;;5091229;28;20062;-59
2021/08/18 08:57:21;;;;;;;1.88;0.90;;;;;;;;;;5091942;28;20020;-59
2021/08/18 08:59:46;;;;;;;1.90;1.00;;;;;;;;;;5090641;28;20070;-59
2021/08/18 09:02:12;;;;;;;1.42;0.90;;;;;;;;;;5091682;28;20052;-59
2021/08/18 09:04:45;;;;;;;2.92;1.20;;;;;;;;;;5091865;28;20471;-59
2021/08/18 09:07:13;;;;;;;1.65;1.08;;;;;;;;;;5091199;28;20016;-59
2021/08/18 09:09:40;;;;;;;1.80;1.25;;;;;;;;;;5091817;28;20034;-58
2021/08/18 09:12:10;;;;;;;1.30;1.20;;;;;;;;;;5087796;28;20347;-59
2021/08/18 09:14:35;;;;;;;1.25;0.93;;;;;;;;;;5091893;28;20390;-60
2021/08/18 09:17:01;;;;;;;2.13;1.00;;;;;;;;;;5091284;28;20020;-59
2021/08/18 09:19:30;;;;;;;1.23;1.00;;;;;;;;;;5092095;28;20016;-60
2021/08/18 09:22:04;;;;;;;1.10;1.00;;;;;;;;;;5090849;28;20024;-59
2021/08/18 09:24:29;;;;;;;1.67;1.13;;;;;;;;;;5090494;28;20031;-59
2021/08/18 09:26:57;;;;;;;3.08;1.55;;;;;;;;;;5097135;28;20032;-59
2021/08/18 09:29:29;;;;;;;1.95;1.50;;;;;;;;;;5101032;28;20031;-58
2021/08/18 09:31:54;;;;;;;2.75;1.80;;;;;;;;;;5077672;28;20020;-60
2021/08/18 09:34:20;;;;;;;1.45;1.17;;;;;;;;;;5104096;28;20111;-59
2021/08/18 09:36:45;;;;;;;1.15;1.05;;;;;;;;;;5103760;28;20431;-59
2021/08/18 09:39:19;;;;;;;2.33;1.00;;;;;;;;;;5093566;28;20564;-60
2021/08/18 09:41:45;;;;;;;1.13;0.90;;;;;;;;;;5096092;28;20015;-60
2021/08/18 09:44:10;;;;;;;1.20;0.75;;;;;;;;;;5106746;28;20523;-58
2021/08/18 09:46:36;;;;;;;1.23;0.90;;;;;;;;;;5110561;28;20016;-60
2021/08/18 09:49:06;;;;;;;1.83;1.13;;;;;;;;;;5103159;28;20016;-59
2021/08/18 09:51:31;;;;;;;1.15;1.02;;;;;;;;;;5092216;28;20100;-59
2021/08/18 09:53:56;;;;;;;1.00;0.90;;;;;;;;;;5091875;28;20119;-59
2021/08/18 09:56:21;;;;;;;1.20;1.10;;;;;;;;;;5109017;28;20038;-59
2021/08/18 09:58:52;;;;;;;1.38;0.90;;;;;;;;;;5102565;28;20031;-59
2021/08/18 10:01:18;;;;;;;2.72;0.75;;;;;;;;;;5085642;28;20455;-58
2021/08/18 10:03:44;;;;;;;1.35;0.90;;;;;;;;;;5110834;28;20114;-59
2021/08/18 10:06:11;;;;;;;3.30;0.95;;;;;;;;;;5095202;28;20008;-58
2021/08/18 10:08:37;;;;;;;0.80;0.70;;;;;;;;;;5098776;28;20406;-59
2021/08/18 10:11:03;;;;;;;0.90;0.57;;;;;;;;;;5089550;28;20099;-59
2021/08/18 10:13:29;;;;;;;1.10;0.65;;;;;;;;;;5090830;28;20111;-60
2021/08/18 10:15:54;;;;;;;0.85;0.75;;;;;;;;;;5090172;28;20409;-59
2021/08/18 10:18:27;;;;;;;0.50;0.40;;;;;;;;;;5090872;28;20028;-60
2021/08/18 10:20:55;;;;;;;0.98;0.40;;;;;;;;;;5090785;28;20107;-59
2021/08/18 10:23:38;;;;;;;0.60;0.38;;;;;;;;;;5090890;28;20073;-59
2021/08/18 10:26:03;;;;;;;0.50;0.40;;;;;;;;;;5087539;28;20015;-59
2021/08/18 10:28:49;;;;;;;1.33;0.60;;;;;;;;;;5073327;28;20543;-59
2021/08/18 10:31:14;;;;;;;1.25;0.60;;;;;;;;;;5064513;28;20056;-60
2021/08/18 10:33:54;;;;;;;1.42;0.40;;;;;;;;;;5076309;28;20063;-59
2021/08/18 10:36:38;;;;;;;0.50;0.40;;;;;;;;;;5073172;28;20058;-59
2021/08/18 10:39:19;;;;;;;1.15;0.40;;;;;;;;;;5081553;28;20032;-59
2021/08/18 10:42:03;;;;;;;0.47;0.30;;;;;;;;;;5073399;28;20017;-59
2021/08/18 10:44:47;;;;;;;0.82;0.30;;;;;;;;;;5080804;28;20070;-59
2021/08/18 10:47:12;;;;;;;1.20;0.30;;;;;;;;;;5075575;28;20490;-59
2021/08/18 10:49:38;;;;;;;0.77;0.40;;;;;;;;;;5086241;28;20012;-60
2021/08/18 10:52:03;;;;;;;0.40;0.30;;;;;;;;;;5082724;28;20020;-60
2021/08/18 10:54:28;;;;;;;0.40;0.38;;;;;;;;;;5086423;28;20089;-59
2021/08/18 10:56:58;;;;;;;0.23;0.20;;;;;;;;;;5083562;28;20081;-60
2021/08/18 10:59:35;;;;;;;0.60;0.20;;;;;;;;;;5086061;28;20312;-59
2021/08/18 11:02:00;;;;;;;0.30;0.20;;;;;;;;;;5080526;28;20039;-59
2021/08/18 11:04:43;;;;;;;0.28;0.28;;;;;;;;;;5089579;28;20012;-60
2021/08/18 11:07:09;;;;;;;0.32;0.13;;;;;;;;;;5080329;28;20023;-59
2021/08/18 11:10:04;;;;;;;0.20;0.20;;;;;;;;;;5074451;28;20016;-60
2021/08/18 11:12:38;;;;;;;0.17;0.10;;;;;;;;;;5052326;28;20449;-60
2021/08/18 11:15:23;;;;;;;0.20;0.20;;;;;;;;;;5065904;28;20017;-60
2021/08/18 11:17:48;;;;;;;;;;;;;;;;;;5063682;28;20090;-59
2021/08/18 11:20:17;;;;;;;0.30;0.20;;;;;;;;;;5071683;28;19912;-58
2021/08/18 11:22:42;;;;;;;0.35;0.20;;;;;;;;;;5073972;28;20043;-58
2021/08/18 11:25:08;;;;;;;1.13;0.10;;;;;;;;;;5074987;28;20370;-58
2021/08/18 11:27:33;;;;;;;1.15;0.25;;;;;;;;;;5086206;28;20576;-59
2021/08/18 11:29:59;;;;;;;2.15;0.93;;;;;;;;;;5092401;28;20374;-59
2021/08/18 11:32:25;;;;;;;0.35;0.28;;;;;;;;;;5095165;28;20032;-59
2021/08/18 11:34:50;;;;;;;0.38;0.30;;;;;;;;;;5093454;28;20016;-59
2021/08/18 11:37:15;;;;;;;0.40;0.32;;;;;;;;;;5094522;28;20016;-59
2021/08/18 11:39:44;;;;;;;0.52;0.30;;;;;;;;;;5094442;28;20024;-59
2021/08/18 11:42:10;;;;;;;0.32;0.30;;;;;;;;;;5090518;28;20099;-59
2021/08/18 11:44:38;;;;;;;0.50;0.40;;;;;;;;;;5083618;28;20028;-59
2021/08/18 11:47:06;;;;;;;0.65;0.20;;;;;;;;;;5094165;28;20028;-59
2021/08/18 11:49:32;;;;;;;0.30;0.10;;;;;;;;;;5095326;28;20032;-59
2021/08/18 11:51:57;;;;;;;0.50;0.20;;;;;;;;;;5095511;28;20369;-59
2021/08/18 11:54:23;;;;;;;0.47;0.20;;;;;;;;;;5094106;28;20020;-59
2021/08/18 11:56:57;;;;;;;0.65;0.30;;;;;;;;;;5094512;28;20374;-59
2021/08/18 11:59:22;;;;;;;0.40;0.20;;;;;;;;;;5094785;28;20040;-59
2021/08/18 12:01:50;;;;;;;0.23;0.20;;;;;;;;;;5094127;28;20087;-60
2021/08/18 12:04:15;;;;;;;0.32;0.25;;;;;;;;;;5094142;28;20278;-60
2021/08/18 12:06:40;;;;;;;0.30;0.20;;;;;;;;;;5094073;28;20027;-58
2021/08/18 12:09:21;;;;;;;0.50;0.20;;;;;;;;;;5094489;28;20024;-59
2021/08/18 12:11:47;;;;;;;0.28;0.20;;;;;;;;;;5094267;28;20009;-59
2021/08/18 12:14:14;;;;;;;0.52;0.20;;;;;;;;;;5094001;28;20504;-59
2021/08/18 12:16:39;;;;;;;0.20;0.20;;;;;;;;;;5094035;28;20089;-59
2021/08/18 12:19:24;;;;;;;0.28;0.20;;;;;;;;;;5094363;28;20020;-59
2021/08/18 12:21:50;;;;;;;;;;;;;;;;;;5093705;28;20028;-60
2021/08/18 12:24:16;;;;;;;0.35;0.20;;;;;;;;;;5087766;28;19919;-60
2021/08/18 12:26:45;;;;;;;1.25;0.20;;;;;;;;;;5081163;28;20380;-60
2021/08/18 12:29:14;;;;;;;0.60;0.20;;;;;;;;;;5093708;28;20031;-58
2021/08/18 12:31:55;;;;;;;0.10;0.10;;;;;;;;;;5093074;28;20023;-58
2021/08/18 12:34:30;;;;;;;0.28;0.20;;;;;;;;;;5092501;28;20024;-58
2021/08/18 12:37:03;;;;;;;0.25;0.20;;;;;;;;;;5092824;28;20035;-58
2021/08/18 12:39:29;;;;;;;0.85;0.20;;;;;;;;;;5093731;28;20058;-59
2021/08/18 12:41:55;;;;;;;0.52;0.20;;;;;;;;;;5082334;28;20370;-59
2021/08/18 12:44:28;;;;;;;0.20;0.20;;;;;;;;;;5093490;28;20025;-59
2021/08/18 12:47:02;;;;;;;0.70;0.20;;;;;;;;;;5093707;28;20107;-59
2021/08/18 12:49:33;;;;;;;0.45;0.20;;;;;;;;;;5102356;28;20354;-59
2021/08/18 12:52:00;;;;;;;0.60;0.25;;;;;;;;;;5114354;28;20068;-59
2021/08/18 12:54:25;;;;;;;1.15;0.10;;;;;;;;;;5113778;28;20398;-59
2021/08/18 12:56:51;;;;;;;0.35;0.20;;;;;;;;;;5093756;28;20012;-59
2021/08/18 12:59:17;;;;;;;0.45;0.20;;;;;;;;;;5093213;28;20048;-59
2021/08/18 13:01:42;;;;;;;2.53;0.20;;;;;;;;;;5092314;28;20023;-59
2021/08/18 13:04:07;;;;;;;0.45;0.32;;;;;;;;;;5093277;28;20024;-59
2021/08/18 13:06:32;;;;;;;1.25;0.30;;;;;;;;;;5093609;28;20016;-59
2021/08/18 13:08:57;;;;;;;0.20;0.15;;;;;;;;;;5093554;28;20020;-60
2021/08/18 13:11:23;;;;;;;0.63;0.20;;;;;;;;;;5093222;28;20016;-59
2021/08/18 13:13:48;;;;;;;0.43;0.20;;;;;;;;;;5093504;28;20111;-60
2021/08/18 13:16:13;;;;;;;0.55;0.30;;;;;;;;;;5092638;28;20020;-59
2021/08/18 13:18:38;;;;;;;0.20;0.20;;;;;;;;;;5093208;28;20111;-59
2021/08/18 13:21:04;;;;;;;1.38;0.28;;;;;;;;;;5073782;28;20270;-59
2021/08/18 13:23:29;;;;;;;1.52;0.30;;;;;;;;;;5093274;28;20355;-59
2021/08/18 13:25:55;;;;;;;0.30;0.30;;;;;;;;;;5093091;28;20146;-60
2021/08/18 13:28:20;;;;;;;0.43;0.20;;;;;;;;;;5091807;28;20032;-60
2021/08/18 13:30:45;;;;;;;0.77;0.20;;;;;;;;;;5092588;28;20034;-60
2021/08/18 13:33:10;;;;;;;0.30;0.20;;;;;;;;;;5092532;28;20077;-60
2021/08/18 13:35:35;;;;;;;0.60;0.43;;;;;;;;;;5092567;28;20031;-60
2021/08/18 13:38:01;;;;;;;0.30;0.20;;;;;;;;;;5087402;28;20319;-60
2021/08/18 13:40:26;;;;;;;0.27;0.20;;;;;;;;;;5081245;28;20104;-60
2021/08/18 13:42:51;;;;;;;0.20;0.20;;;;;;;;;;5084244;28;20292;-61
2021/08/18 13:45:16;;;;;;;1.58;0.20;;;;;;;;;;5085858;28;20035;-60
2021/08/18 13:47:42;;;;;;;1.70;0.30;;;;;;;;;;5091195;28;20382;-60
2021/08/18 13:50:07;;;;;;;0.50;0.30;;;;;;;;;;5091982;28;20281;-59
2021/08/18 13:52:32;;;;;;;0.28;0.20;;;;;;;;;;5091895;28;20262;-60
2021/08/18 13:54:57;;;;;;;0.35;0.20;;;;;;;;;;5092366;28;20042;-60
2021/08/18 13:57:23;;;;;;;1.60;0.30;;;;;;;;;;5076779;28;20023;-60
2021/08/18 13:59:49;;;;;;;0.30;0.20;;;;;;;;;;5090491;28;20046;-60
2021/08/18 14:02:14;;;;;;;0.65;0.20;;;;;;;;;;5106250;28;20027;-60
2021/08/18 14:04:39;;;;;;;0.60;0.20;;;;;;;;;;5111986;28;20046;-59
2021/08/18 14:07:04;;;;;;;0.90;0.40;;;;;;;;;;5093791;28;20374;-59
2021/08/18 14:09:30;;;;;;;0.98;0.20;;;;;;;;;;5090393;28;20382;-59
2021/08/18 14:11:55;;;;;;;0.63;0.20;;;;;;;;;;5091506;28;20024;-59
2021/08/18 14:14:20;;;;;;;0.50;0.20;;;;;;;;;;5088074;28;20054;-59
2021/08/18 14:16:45;;;;;;;0.77;0.30;;;;;;;;;;5090819;28;20270;-59
2021/08/18 14:19:11;;;;;;;0.38;0.22;;;;;;;;;;5090439;28;20466;-60
2021/08/18 14:21:36;;;;;;;0.47;0.30;;;;;;;;;;5095622;28;20496;-59
2021/08/18 14:24:02;;;;;;;0.40;0.30;;;;;;;;;;5090392;28;20085;-58
2021/08/18 14:26:28;;;;;;;0.38;0.30;;;;;;;;;;5092384;28;20063;-58
2021/08/18 14:28:53;;;;;;;0.28;0.10;;;;;;;;;;5090861;28;20048;-59
2021/08/18 14:31:18;;;;;;;0.30;0.20;;;;;;;;;;5091197;28;20034;-59
2021/08/18 14:33:44;;;;;;;0.30;0.30;;;;;;;;;;5088975;28;20016;-59
2021/08/18 14:36:09;;;;;;;1.45;0.20;;;;;;;;;;5090480;28;20508;-60
2021/08/18 14:38:34;;;;;;;0.20;0.20;;;;;;;;;;5090557;28;20024;-59